TimeCDT,TemperatureF,Dew PointF,Humidity,Sea Level PressureIn,VisibilityMPH,Wind Direction,Wind SpeedMPH,Gust SpeedMPH,PrecipitationIn,Events,Conditions,WindDirDegrees,DateUTC
12:07 AM,42.8,42.8,100,29.98,2.0,Calm,Calm,-,N/A,,Clear,0,2013-09-25 05:07:00
12:27 AM,42.8,41.0,93,29.99,0.5,Calm,Calm,-,N/A,Fog,Fog,0,2013-09-25 05:27:00
12:47 AM,42.8,41.0,93,29.99,0.5,Calm,Calm,-,N/A,Fog,Fog,0,2013-09-25 05:47:00
1:07 AM,42.8,41.0,93,29.99,1.0,Calm,Calm,-,N/A,,Mist,0,2013-09-25 06:07:00
1:27 AM,41.0,41.0,100,29.99,0.5,Calm,Calm,-,N/A,Fog,Fog,0,2013-09-25 06:27:00
1:47 AM,42.8,41.0,93,29.99,0.5,Calm,Calm,-,N/A,Fog,Fog,0,2013-09-25 06:47:00
2:07 AM,41.0,41.0,100,29.99,0.5,Calm,Calm,-,N/A,Fog,Fog,0,2013-09-25 07:07:00
2:27 AM,41.0,39.2,93,29.99,0.5,Calm,Calm,-,N/A,Fog,Fog,0,2013-09-25 07:27:00
2:47 AM,41.0,39.2,93,29.99,0.5,Calm,Calm,-,N/A,Fog,Fog,0,2013-09-25 07:47:00
3:07 AM,39.2,37.4,93,29.99,1.0,Calm,Calm,-,N/A,,Mostly Cloudy,0,2013-09-25 08:07:00
3:27 AM,39.2,37.4,93,30.00,1.0,Calm,Calm,-,N/A,,Mist,0,2013-09-25 08:27:00
3:47 AM,39.2,37.4,93,30.00,2.0,Calm,Calm,-,N/A,,Clear,0,2013-09-25 08:47:00
4:06 AM,39.2,37.4,93,30.00,1.5,Calm,Calm,-,N/A,,Mist,0,2013-09-25 09:06:00
4:27 AM,37.4,37.4,100,30.00,0.8,Calm,Calm,-,N/A,,Mist,0,2013-09-25 09:27:00
4:47 AM,39.2,37.4,93,30.00,1.0,Calm,Calm,-,N/A,,Mist,0,2013-09-25 09:47:00
5:06 AM,39.2,37.4,93,30.00,0.8,NE,3.5,-,N/A,,Mist,50,2013-09-25 10:06:00
5:27 AM,37.4,37.4,100,30.00,0.8,Calm,Calm,-,N/A,,Mist,0,2013-09-25 10:27:00
5:47 AM,39.2,37.4,93,30.00,0.5,Calm,Calm,-,N/A,Fog,Fog,0,2013-09-25 10:47:00
6:06 AM,37.4,37.4,100,30.00,0.2,Calm,Calm,-,N/A,Fog,Fog,0,2013-09-25 11:06:00
6:27 AM,37.4,35.6,93,30.00,0.5,Calm,Calm,-,N/A,Fog,Fog,0,2013-09-25 11:27:00
6:47 AM,35.6,35.6,100,30.00,0.2,Calm,Calm,-,N/A,Fog,Fog,0,2013-09-25 11:47:00
7:07 AM,35.6,35.6,100,30.00,0.2,Calm,Calm,-,N/A,Fog,Fog,0,2013-09-25 12:07:00
7:27 AM,35.6,35.6,100,30.00,0.8,Calm,Calm,-,N/A,,Mostly Cloudy,0,2013-09-25 12:27:00
7:47 AM,39.2,37.4,93,30.00,0.2,Calm,Calm,-,N/A,Fog,Fog,0,2013-09-25 12:47:00
8:07 AM,42.8,42.8,100,30.00,1.2,Calm,Calm,-,N/A,,Mist,0,2013-09-25 13:07:00
8:27 AM,50.0,48.2,94,30.00,7.0,East,3.5,-,N/A,,Clear,80,2013-09-25 13:27:00
8:47 AM,51.8,51.8,100,30.00,10.0,Calm,Calm,-,N/A,,Clear,0,2013-09-25 13:47:00
9:07 AM,51.8,51.8,100,30.00,10.0,Calm,Calm,-,N/A,,Clear,0,2013-09-25 14:07:00
9:27 AM,51.8,51.8,100,30.00,10.0,Calm,Calm,-,N/A,,Clear,0,2013-09-25 14:27:00
9:47 AM,53.6,51.8,94,30.00,10.0,Calm,Calm,-,N/A,,Clear,0,2013-09-25 14:47:00
10:07 AM,57.2,50.0,77,30.00,10.0,ESE,3.5,-,N/A,,Clear,120,2013-09-25 15:07:00
10:27 AM,62.6,51.8,68,30.00,10.0,ESE,4.6,-,N/A,,Clear,120,2013-09-25 15:27:00
10:47 AM,62.6,51.8,68,30.00,10.0,South,5.8,-,N/A,,Clear,180,2013-09-25 15:47:00
11:07 AM,62.6,51.8,68,30.00,10.0,South,3.5,-,N/A,,Clear,180,2013-09-25 16:07:00
11:27 AM,64.4,50.0,59,29.99,10.0,SSE,9.2,-,N/A,,Clear,160,2013-09-25 16:27:00
11:47 AM,68.0,50.0,52,30.00,10.0,South,9.2,-,N/A,,Clear,190,2013-09-25 16:47:00
12:07 PM,69.8,50.0,49,30.00,10.0,SE,10.4,-,N/A,,Clear,140,2013-09-25 17:07:00
12:27 PM,69.8,50.0,49,29.99,10.0,South,13.8,20.7,N/A,,Clear,190,2013-09-25 17:27:00
12:47 PM,69.8,50.0,49,29.99,10.0,South,9.2,16.1,N/A,,Clear,170,2013-09-25 17:47:00
1:07 PM,71.6,50.0,46,29.98,10.0,South,13.8,17.3,N/A,,Clear,180,2013-09-25 18:07:00
1:27 PM,71.6,50.0,46,29.97,10.0,SSE,11.5,-,N/A,,Clear,160,2013-09-25 18:27:00
1:47 PM,71.6,48.2,43,29.96,10.0,South,10.4,-,N/A,,Clear,170,2013-09-25 18:47:00
2:07 PM,71.6,48.2,43,29.96,10.0,SSE,6.9,-,N/A,,Clear,150,2013-09-25 19:07:00
2:27 PM,71.6,46.4,41,29.95,10.0,SSE,9.2,-,N/A,,Clear,160,2013-09-25 19:27:00
2:47 PM,71.6,48.2,43,29.95,10.0,SSE,9.2,-,N/A,,Clear,160,2013-09-25 19:47:00
3:07 PM,71.6,48.2,43,29.95,10.0,SSE,4.6,-,N/A,,Clear,160,2013-09-25 20:07:00
3:27 PM,-9999,-9999,N/A,-9999,10.0,SSE,8.1,-,N/A,,Unknown,160,2013-09-25 20:27:00
3:46 PM,71.6,50.0,46,29.94,10.0,SE,8.1,-,N/A,,Clear,140,2013-09-25 20:46:00
4:07 PM,68.0,46.4,46,29.94,10.0,SE,9.2,-,N/A,,Clear,140,2013-09-25 21:07:00
4:27 PM,69.8,48.2,46,29.94,10.0,SSE,10.4,-,N/A,,Clear,150,2013-09-25 21:27:00
4:46 PM,64.4,48.2,56,29.94,10.0,SE,8.1,-,N/A,,Clear,140,2013-09-25 21:46:00
5:07 PM,64.4,48.2,56,29.93,10.0,SE,6.9,-,N/A,,Clear,140,2013-09-25 22:07:00
5:27 PM,64.4,50.0,59,29.93,10.0,SE,5.8,-,N/A,,Clear,140,2013-09-25 22:27:00
5:46 PM,64.4,50.0,59,29.93,10.0,SE,5.8,-,N/A,,Clear,140,2013-09-25 22:46:00
6:07 PM,66.2,50.0,56,29.93,10.0,SSE,9.2,-,N/A,,Clear,150,2013-09-25 23:07:00
6:27 PM,62.6,50.0,63,29.93,10.0,SE,8.1,-,N/A,,Clear,140,2013-09-25 23:27:00
6:46 PM,62.6,50.0,63,29.94,10.0,SE,5.8,-,N/A,,Clear,140,2013-09-25 23:46:00
7:07 PM,60.8,50.0,68,29.95,10.0,SE,4.6,-,N/A,,Clear,130,2013-09-26 00:07:00
7:27 PM,59.0,50.0,72,29.95,10.0,ESE,4.6,-,N/A,,Clear,120,2013-09-26 00:27:00
7:46 PM,59.0,51.8,77,29.95,10.0,ESE,4.6,-,N/A,,Clear,110,2013-09-26 00:46:00
8:07 PM,57.2,50.0,77,29.95,10.0,East,3.5,-,N/A,,Clear,100,2013-09-26 01:07:00
8:27 PM,57.2,51.8,82,29.95,10.0,Calm,Calm,-,N/A,,Clear,0,2013-09-26 01:27:00
8:47 PM,53.6,50.0,88,29.95,10.0,Calm,Calm,-,N/A,,Clear,0,2013-09-26 01:47:00
9:07 PM,53.6,50.0,88,29.96,10.0,East,3.5,-,N/A,,Clear,90,2013-09-26 02:07:00
9:27 PM,51.8,48.2,88,29.96,10.0,East,3.5,-,N/A,,Clear,90,2013-09-26 02:27:00
9:47 PM,51.8,48.2,88,29.96,10.0,Calm,Calm,-,N/A,,Clear,0,2013-09-26 02:47:00
10:07 PM,51.8,50.0,94,29.97,10.0,ENE,3.5,-,N/A,,Clear,60,2013-09-26 03:07:00
10:27 PM,50.0,48.2,94,29.96,10.0,NE,4.6,-,N/A,,Clear,50,2013-09-26 03:27:00
10:47 PM,50.0,48.2,94,29.97,10.0,NE,3.5,-,N/A,,Clear,50,2013-09-26 03:47:00
11:06 PM,50.0,48.2,94,29.97,10.0,Calm,Calm,-,N/A,,Clear,0,2013-09-26 04:06:00
11:27 PM,46.4,44.6,93,29.98,7.0,Calm,Calm,-,N/A,,Clear,0,2013-09-26 04:27:00
11:47 PM,46.4,46.4,100,29.98,7.0,Calm,Calm,-,N/A,,Clear,0,2013-09-26 04:47:00